Time;durP1;ratioP1;P1;durP2;ratioP2;P2;SDS_P1;SDS_P2;PMS_P1;PMS_P2;Temp;Humidity;BMP_temperature;BMP_pressure;BME280_temperature;BME280_humidity;BME280_pressure;Samples;Min_cycle;Max_cycle;Signal;HPM_P1;HPM_P2
2021/05/15 00:00:49;;;;;;;14.37;6.90;;;;;;;;;;12837580;23;20204;-78
2021/05/15 00:05:51;;;;;;;12.70;6.97;;;;;;;;;;12818780;23;20239;-78
2021/05/15 00:10:52;;;;;;;12.07;6.93;;;;;;;;;;12822101;23;20683;-77
2021/05/15 00:15:53;;;;;;;14.57;6.90;;;;;;;;;;12841364;23;20202;-78
2021/05/15 00:20:55;;;;;;;13.73;7.80;;;;;;;;;;12824034;23;20204;-78
2021/05/15 00:25:58;;;;;;;13.80;7.90;;;;;;;;;;12823334;23;20340;-77
2021/05/15 00:30:59;;;;;;;14.27;7.20;;;;;;;;;;12821003;23;20764;-78
2021/05/15 00:36:01;;;;;;;14.00;7.50;;;;;;;;;;12845049;23;20215;-78
2021/05/15 00:41:02;;;;;;;13.27;7.87;;;;;;;;;;12844574;23;20510;-78
2021/05/15 00:46:03;;;;;;;13.83;7.27;;;;;;;;;;12820481;23;20567;-78
2021/05/15 00:51:05;;;;;;;15.30;7.27;;;;;;;;;;12821402;23;20187;-77
2021/05/15 00:56:07;;;;;;;14.03;7.80;;;;;;;;;;12821615;23;20402;-77
2021/05/15 01:01:08;;;;;;;14.67;8.07;;;;;;;;;;12818676;23;20712;-78
2021/05/15 01:06:10;;;;;;;17.07;8.40;;;;;;;;;;12822413;23;20206;-78
2021/05/15 01:11:11;;;;;;;15.77;8.07;;;;;;;;;;12843801;23;20255;-78
2021/05/15 01:16:12;;;;;;;15.10;8.20;;;;;;;;;;12820629;23;20174;-78
2021/05/15 01:21:14;;;;;;;12.53;7.67;;;;;;;;;;12823018;23;20190;-78
2021/05/15 01:26:16;;;;;;;11.20;7.17;;;;;;;;;;12821280;23;20664;-77
2021/05/15 01:31:18;;;;;;;12.67;7.77;;;;;;;;;;12818373;23;20180;-77
2021/05/15 01:36:20;;;;;;;13.43;7.60;;;;;;;;;;12821484;23;20246;-77
2021/05/15 01:41:21;;;;;;;12.47;7.40;;;;;;;;;;12841604;23;20477;-77
2021/05/15 01:46:22;;;;;;;16.40;8.23;;;;;;;;;;12818362;23;20235;-77
2021/05/15 01:51:24;;;;;;;12.07;8.70;;;;;;;;;;12841185;23;20620;-77
2021/05/15 01:56:26;;;;;;;12.43;7.83;;;;;;;;;;12841850;23;20778;-77
2021/05/15 02:01:27;;;;;;;20.63;9.13;;;;;;;;;;12816363;23;20207;-77
2021/05/15 02:06:29;;;;;;;13.30;8.63;;;;;;;;;;12844989;23;20637;-77
2021/05/15 02:11:30;;;;;;;12.13;8.33;;;;;;;;;;12822059;23;20176;-77
2021/05/15 02:16:31;;;;;;;14.37;8.40;;;;;;;;;;12841624;23;20176;-77
2021/05/15 02:21:33;;;;;;;13.83;8.70;;;;;;;;;;12825089;23;20203;-77
2021/05/15 02:26:34;;;;;;;14.00;8.83;;;;;;;;;;12820754;23;20211;-78
2021/05/15 02:31:35;;;;;;;14.83;8.70;;;;;;;;;;12819715;23;20211;-77
2021/05/15 02:36:37;;;;;;;12.90;7.90;;;;;;;;;;12822168;23;20171;-77
2021/05/15 02:41:38;;;;;;;12.80;8.53;;;;;;;;;;12821618;23;20515;-77
2021/05/15 02:46:39;;;;;;;14.73;8.73;;;;;;;;;;12840532;23;20295;-79
2021/05/15 02:51:41;;;;;;;13.77;8.37;;;;;;;;;;12821696;23;20663;-77
2021/05/15 02:56:42;;;;;;;13.67;8.60;;;;;;;;;;12821134;23;20564;-76
2021/05/15 03:01:43;;;;;;;16.60;8.53;;;;;;;;;;12820572;23;20199;-77
2021/05/15 03:06:45;;;;;;;12.30;8.10;;;;;;;;;;12823470;23;20214;-78
2021/05/15 03:11:46;;;;;;;14.13;8.07;;;;;;;;;;12822777;23;20934;-77
2021/05/15 03:16:48;;;;;;;12.40;8.13;;;;;;;;;;12820041;23;20310;-77
2021/05/15 03:21:50;;;;;;;10.27;7.63;;;;;;;;;;12822180;23;20275;-78
2021/05/15 03:26:51;;;;;;;17.20;9.07;;;;;;;;;;12818645;23;20237;-77
2021/05/15 03:31:52;;;;;;;13.13;8.30;;;;;;;;;;12838339;23;20180;-77
2021/05/15 03:36:54;;;;;;;14.73;8.40;;;;;;;;;;12820829;23;20243;-77
2021/05/15 03:41:55;;;;;;;13.03;8.60;;;;;;;;;;12842048;23;20207;-77
2021/05/15 03:46:56;;;;;;;14.10;8.67;;;;;;;;;;12820515;23;20257;-77
2021/05/15 03:51:58;;;;;;;15.03;8.43;;;;;;;;;;12823512;23;20222;-78
2021/05/15 03:56:59;;;;;;;11.37;7.43;;;;;;;;;;12824106;23;20549;-78
2021/05/15 04:02:00;;;;;;;13.50;8.30;;;;;;;;;;12825053;23;20200;-77
2021/05/15 04:07:02;;;;;;;13.13;8.53;;;;;;;;;;12824882;23;20211;-77
2021/05/15 04:12:03;;;;;;;12.87;8.53;;;;;;;;;;12826360;23;20830;-77
2021/05/15 04:22:27;;;;;;;14.57;8.53;;;;;;;;;;12819751;23;20230;-77
2021/05/15 04:27:28;;;;;;;14.97;8.77;;;;;;;;;;12823005;23;20543;-76
2021/05/15 04:32:29;;;;;;;14.03;8.50;;;;;;;;;;12822924;23;20287;-76
2021/05/15 04:37:30;;;;;;;14.93;8.73;;;;;;;;;;12846749;23;20167;-77
2021/05/15 04:42:31;;;;;;;12.10;8.57;;;;;;;;;;12825736;23;20222;-77
2021/05/15 04:47:32;;;;;;;15.83;8.77;;;;;;;;;;12824632;23;20275;-77
2021/05/15 04:52:35;;;;;;;13.87;8.80;;;;;;;;;;12823373;23;20267;-77
2021/05/15 04:57:36;;;;;;;15.87;8.63;;;;;;;;;;12824230;23;20179;-76
2021/05/15 05:02:37;;;;;;;14.90;8.93;;;;;;;;;;12841286;23;20257;-77
2021/05/15 05:07:39;;;;;;;13.07;8.77;;;;;;;;;;12825389;23;20651;-77
2021/05/15 05:12:40;;;;;;;13.97;9.10;;;;;;;;;;12824803;23;20533;-77
2021/05/15 05:17:42;;;;;;;15.77;9.57;;;;;;;;;;12846115;23;20183;-77
2021/05/15 05:22:44;;;;;;;13.40;9.50;;;;;;;;;;12845705;23;20178;-77
2021/05/15 05:27:47;;;;;;;14.17;9.40;;;;;;;;;;12825237;23;20318;-78
2021/05/15 05:32:49;;;;;;;16.80;9.60;;;;;;;;;;12821430;23;20983;-78
2021/05/15 05:37:51;;;;;;;17.17;10.00;;;;;;;;;;12825452;23;20285;-77
2021/05/15 05:42:52;;;;;;;13.13;9.90;;;;;;;;;;12823086;23;20174;-77
2021/05/15 05:47:53;;;;;;;14.60;9.67;;;;;;;;;;12843970;23;20235;-78
2021/05/15 05:52:55;;;;;;;17.53;9.73;;;;;;;;;;12843675;23;20179;-76
2021/05/15 05:57:56;;;;;;;16.00;9.77;;;;;;;;;;12845899;23;20271;-77
2021/05/15 06:02:57;;;;;;;15.87;10.63;;;;;;;;;;12820542;23;20199;-78
2021/05/15 06:08:05;;;;;;;19.03;10.83;;;;;;;;;;12824689;23;20934;-78
2021/05/15 06:13:06;;;;;;;17.67;10.67;;;;;;;;;;12841115;23;20168;-78
2021/05/15 06:18:07;;;;;;;15.90;11.13;;;;;;;;;;12818907;23;20255;-77
2021/05/15 06:23:09;;;;;;;16.03;10.50;;;;;;;;;;12840538;23;20251;-77
2021/05/15 06:28:11;;;;;;;18.40;11.57;;;;;;;;;;12824680;23;20302;-77
2021/05/15 06:33:12;;;;;;;20.20;12.70;;;;;;;;;;12818983;23;20643;-77
2021/05/15 06:38:14;;;;;;;17.40;12.27;;;;;;;;;;12824195;23;20207;-76
2021/05/15 06:43:15;;;;;;;18.93;12.97;;;;;;;;;;12841556;23;20237;-77
2021/05/15 06:48:16;;;;;;;18.27;12.13;;;;;;;;;;12822037;23;20211;-77
2021/05/15 06:53:18;;;;;;;18.77;12.80;;;;;;;;;;12821088;23;20195;-77
2021/05/15 06:58:19;;;;;;;22.00;12.93;;;;;;;;;;12824109;23;20746;-77
2021/05/15 07:03:20;;;;;;;19.07;11.93;;;;;;;;;;12820404;23;20201;-77
2021/05/15 07:08:22;;;;;;;17.73;10.90;;;;;;;;;;12844830;23;20571;-77
2021/05/15 07:13:23;;;;;;;17.97;11.57;;;;;;;;;;12824772;23;20618;-77
2021/05/15 07:18:24;;;;;;;19.70;11.57;;;;;;;;;;12821622;23;20204;-78
2021/05/15 07:23:26;;;;;;;19.43;12.13;;;;;;;;;;12829635;23;20536;-77
2021/05/15 07:28:29;;;;;;;17.57;11.73;;;;;;;;;;12845886;23;20242;-77
2021/05/15 07:33:30;;;;;;;20.50;11.90;;;;;;;;;;12824987;23;20168;-77
2021/05/15 07:38:34;;;;;;;15.57;10.70;;;;;;;;;;12846626;23;20505;-77
2021/05/15 07:43:35;;;;;;;17.97;10.87;;;;;;;;;;12846533;23;20500;-76
2021/05/15 07:48:40;;;;;;;17.43;10.97;;;;;;;;;;12822102;23;20238;-76
2021/05/15 07:53:42;;;;;;;16.63;10.50;;;;;;;;;;12845240;23;20555;-77
2021/05/15 07:58:43;;;;;;;14.63;9.90;;;;;;;;;;12825465;23;20188;-77
2021/05/15 08:03:44;;;;;;;14.70;10.00;;;;;;;;;;12823501;23;20191;-77
2021/05/15 08:08:46;;;;;;;14.23;8.73;;;;;;;;;;12825369;23;20199;-77
2021/05/15 08:13:47;;;;;;;12.23;8.30;;;;;;;;;;12826214;23;20259;-77
2021/05/15 08:18:48;;;;;;;10.83;7.80;;;;;;;;;;12822052;23;20180;-76
2021/05/15 08:23:49;;;;;;;13.10;7.73;;;;;;;;;;12846568;23;20203;-76
2021/05/15 08:28:52;;;;;;;11.90;7.70;;;;;;;;;;12823711;23;20271;-76
2021/05/15 08:33:53;;;;;;;12.50;7.67;;;;;;;;;;12823542;23;20183;-76
2021/05/15 08:38:56;;;;;;;14.70;8.93;;;;;;;;;;12825357;23;20172;-77
2021/05/15 08:43:57;;;;;;;14.77;9.10;;;;;;;;;;12846021;23;20175;-77
2021/05/15 08:48:59;;;;;;;16.30;10.17;;;;;;;;;;12821972;23;20218;-76
2021/05/15 08:54:02;;;;;;;16.00;10.20;;;;;;;;;;12846370;23;20187;-77
2021/05/15 08:59:03;;;;;;;16.07;10.70;;;;;;;;;;12844669;23;20180;-77
2021/05/15 09:04:04;;;;;;;18.70;10.30;;;;;;;;;;12824010;23;20199;-77
2021/05/15 09:09:07;;;;;;;14.33;8.73;;;;;;;;;;12844903;23;20266;-76
2021/05/15 09:14:13;;;;;;;14.63;9.67;;;;;;;;;;12824787;23;20191;-76
2021/05/15 09:19:19;;;;;;;11.87;7.70;;;;;;;;;;12842977;23;20202;-78
2021/05/15 09:24:27;;;;;;;11.63;8.23;;;;;;;;;;12844162;23;20196;-76
2021/05/15 09:29:39;;;;;;;10.97;7.57;;;;;;;;;;12843963;23;20651;-77
2021/05/15 09:34:46;;;;;;;10.37;7.03;;;;;;;;;;12821930;23;20168;-76
2021/05/15 09:39:49;;;;;;;10.57;7.57;;;;;;;;;;12844078;23;20494;-76
2021/05/15 09:44:51;;;;;;;12.73;7.60;;;;;;;;;;12824466;23;20540;-77
2021/05/15 09:49:54;;;;;;;14.40;8.13;;;;;;;;;;12842822;23;20203;-77
2021/05/15 09:55:07;;;;;;;13.10;8.17;;;;;;;;;;12844203;23;20186;-77
2021/05/15 10:00:11;;;;;;;15.37;8.00;;;;;;;;;;12823124;23;20172;-78
2021/05/15 10:05:13;;;;;;;12.23;7.63;;;;;;;;;;12840894;23;20199;-78
2021/05/15 10:10:16;;;;;;;11.63;8.20;;;;;;;;;;12845866;23;20203;-77
2021/05/15 10:15:19;;;;;;;15.10;9.83;;;;;;;;;;12843309;23;20255;-76
2021/05/15 10:20:21;;;;;;;15.53;9.43;;;;;;;;;;12841745;23;20547;-76
2021/05/15 10:25:27;;;;;;;13.17;8.97;;;;;;;;;;12822358;23;20180;-77
2021/05/15 10:30:29;;;;;;;14.13;9.50;;;;;;;;;;12843556;23;20203;-76
2021/05/15 10:35:32;;;;;;;13.20;8.53;;;;;;;;;;12819580;23;20208;-77
2021/05/15 10:40:45;;;;;;;12.17;8.53;;;;;;;;;;12824402;23;20183;-77
2021/05/15 10:45:48;;;;;;;17.27;9.57;;;;;;;;;;12840004;23;20184;-77
2021/05/15 10:50:52;;;;;;;14.03;9.43;;;;;;;;;;12822994;23;20204;-76
2021/05/15 10:56:09;;;;;;;19.43;10.93;;;;;;;;;;12820377;23;20633;-76
2021/05/15 11:01:13;;;;;;;15.03;9.07;;;;;;;;;;12839588;23;20180;-77
2021/05/15 11:06:16;;;;;;;21.87;12.43;;;;;;;;;;12842046;23;20190;-76
2021/05/15 11:11:20;;;;;;;19.90;12.70;;;;;;;;;;12840016;23;20172;-76
2021/05/15 11:16:30;;;;;;;17.53;11.73;;;;;;;;;;12839107;23;20999;-77
2021/05/15 11:21:36;;;;;;;19.30;11.00;;;;;;;;;;12841230;23;20172;-77
2021/05/15 11:26:49;;;;;;;22.73;13.97;;;;;;;;;;12841809;23;20211;-76
2021/05/15 11:31:52;;;;;;;24.07;13.50;;;;;;;;;;12841001;23;20638;-77
2021/05/15 11:36:54;;;;;;;21.03;12.70;;;;;;;;;;12842142;23;20609;-77
2021/05/15 11:42:04;;;;;;;23.77;14.40;;;;;;;;;;12821939;23;20712;-77
2021/05/15 11:47:09;;;;;;;24.13;15.17;;;;;;;;;;12818757;23;20211;-77
2021/05/15 11:52:11;;;;;;;25.37;15.00;;;;;;;;;;12834617;23;20183;-77
2021/05/15 11:57:24;;;;;;;19.37;13.53;;;;;;;;;;12820378;23;20191;-78
2021/05/15 12:02:27;;;;;;;21.93;13.90;;;;;;;;;;12839653;23;20223;-77
2021/05/15 12:07:29;;;;;;;24.20;14.13;;;;;;;;;;12822495;23;20207;-77
2021/05/15 12:12:32;;;;;;;24.00;15.57;;;;;;;;;;12844499;23;20175;-77
2021/05/15 12:17:34;;;;;;;24.40;15.87;;;;;;;;;;12823430;23;20183;-77
2021/05/15 12:22:37;;;;;;;26.80;17.63;;;;;;;;;;12824231;23;20262;-77
2021/05/15 12:27:40;;;;;;;26.63;16.77;;;;;;;;;;12823880;23;20234;-77
2021/05/15 12:32:45;;;;;;;24.90;16.77;;;;;;;;;;12843284;23;20657;-77
2021/05/15 12:37:47;;;;;;;26.37;15.83;;;;;;;;;;12842143;23;20179;-76
2021/05/15 12:42:50;;;;;;;24.60;15.40;;;;;;;;;;12840681;23;20172;-77
2021/05/15 12:47:52;;;;;;;20.07;13.43;;;;;;;;;;12841681;23;20400;-76
2021/05/15 12:53:04;;;;;;;18.53;12.07;;;;;;;;;;12819977;23;20184;-77
2021/05/15 12:58:07;;;;;;;19.60;12.50;;;;;;;;;;12821885;23;20202;-77
2021/05/15 13:03:15;;;;;;;19.93;13.63;;;;;;;;;;12819948;23;20287;-78
2021/05/15 13:08:18;;;;;;;17.67;10.67;;;;;;;;;;12845872;23;20235;-76
2021/05/15 13:13:22;;;;;;;20.97;11.97;;;;;;;;;;12840710;23;20172;-76
2021/05/15 13:18:24;;;;;;;17.87;11.87;;;;;;;;;;12840369;23;20210;-77
2021/05/15 13:23:26;;;;;;;16.43;11.03;;;;;;;;;;12841179;23;20191;-77
2021/05/15 13:28:30;;;;;;;20.23;12.27;;;;;;;;;;12823934;23;20235;-77
2021/05/15 13:33:32;;;;;;;20.83;12.90;;;;;;;;;;12818863;23;20539;-79
2021/05/15 13:38:34;;;;;;;19.67;12.80;;;;;;;;;;12843901;23;20176;-77
2021/05/15 13:43:38;;;;;;;22.53;12.13;;;;;;;;;;12845125;23;20176;-77
2021/05/15 13:48:40;;;;;;;19.53;11.60;;;;;;;;;;12841456;23;20266;-77
2021/05/15 13:53:43;;;;;;;20.80;12.07;;;;;;;;;;12821747;23;20636;-77
2021/05/15 13:58:46;;;;;;;20.00;11.23;;;;;;;;;;12821621;23;20230;-76
2021/05/15 14:03:48;;;;;;;14.80;9.13;;;;;;;;;;12820057;23;20195;-77
2021/05/15 14:08:51;;;;;;;9.43;5.93;;;;;;;;;;12821918;23;20270;-76
2021/05/15 14:13:54;;;;;;;6.30;3.37;;;;;;;;;;12842060;23;20176;-76
2021/05/15 14:18:56;;;;;;;4.07;2.70;;;;;;;;;;12839411;23;20176;-76
2021/05/15 14:23:59;;;;;;;5.03;2.47;;;;;;;;;;12822972;23;20181;-77
2021/05/15 14:29:02;;;;;;;2.93;2.00;;;;;;;;;;12840727;23;20208;-77
2021/05/15 14:34:05;;;;;;;4.57;1.80;;;;;;;;;;12818424;23;20876;-78
2021/05/15 14:39:07;;;;;;;3.27;1.60;;;;;;;;;;12841933;23;20175;-77
2021/05/15 14:44:11;;;;;;;5.20;2.27;;;;;;;;;;12841721;23;20629;-77
2021/05/15 14:49:13;;;;;;;5.47;2.10;;;;;;;;;;12839562;23;20210;-77
2021/05/15 14:54:16;;;;;;;4.00;2.00;;;;;;;;;;12842324;23;20712;-77
2021/05/15 14:59:19;;;;;;;3.50;2.17;;;;;;;;;;12819875;23;20659;-77
2021/05/15 15:04:22;;;;;;;4.63;1.83;;;;;;;;;;12819104;23;20203;-79
2021/05/15 15:09:24;;;;;;;4.53;2.13;;;;;;;;;;12818830;23;20218;-78
2021/05/15 15:14:27;;;;;;;5.23;2.20;;;;;;;;;;12819272;23;20176;-77
2021/05/15 15:19:33;;;;;;;3.87;2.30;;;;;;;;;;12816186;23;20164;-78
2021/05/15 15:24:35;;;;;;;6.93;2.30;;;;;;;;;;12839978;23;20190;-78
2021/05/15 15:29:38;;;;;;;3.70;2.10;;;;;;;;;;12818697;23;20207;-78
2021/05/15 15:34:41;;;;;;;3.53;2.30;;;;;;;;;;12818087;23;20175;-78
2021/05/15 15:39:44;;;;;;;6.60;1.90;;;;;;;;;;12822157;23;20194;-78
2021/05/15 15:44:49;;;;;;;3.07;2.13;;;;;;;;;;12825825;23;20626;-77
2021/05/15 15:49:52;;;;;;;3.70;2.17;;;;;;;;;;12843095;23;20215;-77
2021/05/15 15:54:54;;;;;;;4.57;1.97;;;;;;;;;;12824903;23;20190;-78
2021/05/15 15:59:57;;;;;;;5.10;2.37;;;;;;;;;;12823550;23;20236;-78
2021/05/15 16:05:16;;;;;;;1.93;1.70;;;;;;;;;;12822434;23;20201;-79
2021/05/15 16:10:18;;;;;;;3.00;1.80;;;;;;;;;;12845641;23;20211;-78
2021/05/15 16:15:22;;;;;;;2.63;1.80;;;;;;;;;;12824420;23;20760;-78
2021/05/15 16:20:25;;;;;;;4.13;2.03;;;;;;;;;;12818809;23;20179;-77
2021/05/15 16:25:28;;;;;;;3.37;1.90;;;;;;;;;;12844410;23;20218;-76
2021/05/15 16:30:33;;;;;;;2.63;1.80;;;;;;;;;;12844121;23;20218;-77
2021/05/15 16:35:37;;;;;;;3.03;1.70;;;;;;;;;;12842631;23;20991;-77
2021/05/15 16:40:39;;;;;;;2.67;1.67;;;;;;;;;;12845004;23;20186;-75
2021/05/15 16:45:43;;;;;;;2.87;1.60;;;;;;;;;;12845014;23;20521;-76
2021/05/15 16:50:45;;;;;;;2.27;1.70;;;;;;;;;;12844928;23;20214;-76
2021/05/15 16:55:47;;;;;;;3.10;1.60;;;;;;;;;;12843416;23;20172;-77
2021/05/15 17:00:51;;;;;;;1.77;1.60;;;;;;;;;;12842980;23;20194;-77
2021/05/15 17:05:54;;;;;;;4.13;2.20;;;;;;;;;;12843604;23;20521;-77
2021/05/15 17:10:56;;;;;;;4.87;2.00;;;;;;;;;;12845447;23;20207;-77
2021/05/15 17:15:59;;;;;;;3.50;2.03;;;;;;;;;;12820154;23;20699;-77
2021/05/15 17:21:02;;;;;;;5.47;2.50;;;;;;;;;;12845508;23;20172;-77
2021/05/15 17:26:04;;;;;;;8.20;4.20;;;;;;;;;;12842092;23;20664;-76
2021/05/15 17:31:07;;;;;;;6.80;3.70;;;;;;;;;;12821041;23;20214;-77
2021/05/15 17:36:10;;;;;;;6.53;3.07;;;;;;;;;;12823393;23;20258;-77
2021/05/15 17:41:13;;;;;;;2.60;2.20;;;;;;;;;;12822807;23;20176;-78
2021/05/15 17:46:18;;;;;;;3.53;2.50;;;;;;;;;;12818111;23;20769;-77
2021/05/15 17:51:21;;;;;;;4.43;2.37;;;;;;;;;;12821682;23;20203;-77
2021/05/15 17:56:24;;;;;;;6.27;3.00;;;;;;;;;;12840487;23;20171;-76
2021/05/15 18:01:27;;;;;;;7.03;2.77;;;;;;;;;;12840346;23;20195;-77
2021/05/15 18:06:31;;;;;;;4.77;2.70;;;;;;;;;;12841287;23;20210;-76
2021/05/15 18:11:34;;;;;;;4.83;3.00;;;;;;;;;;12843324;23;20203;-77
2021/05/15 18:16:37;;;;;;;3.57;2.50;;;;;;;;;;12838807;23;20487;-77
2021/05/15 18:21:39;;;;;;;3.20;2.50;;;;;;;;;;12843851;23;20684;-78
2021/05/15 18:26:42;;;;;;;4.33;2.57;;;;;;;;;;12819583;23;20622;-77
2021/05/15 18:31:45;;;;;;;4.30;2.30;;;;;;;;;;12820322;23;20202;-78
2021/05/15 18:36:47;;;;;;;6.27;2.40;;;;;;;;;;12820874;23;20175;-77
2021/05/15 18:41:51;;;;;;;5.93;2.80;;;;;;;;;;12840891;23;20295;-77
2021/05/15 18:46:54;;;;;;;4.17;2.50;;;;;;;;;;12838968;23;20172;-77
2021/05/15 18:51:57;;;;;;;3.93;2.53;;;;;;;;;;12821610;23;20230;-78
2021/05/15 18:56:59;;;;;;;4.70;2.60;;;;;;;;;;12820204;23;20187;-77
2021/05/15 19:02:03;;;;;;;4.83;2.83;;;;;;;;;;12841444;23;20662;-78
2021/05/15 19:07:06;;;;;;;4.90;3.20;;;;;;;;;;12842372;23;20262;-77
2021/05/15 19:12:08;;;;;;;4.57;3.00;;;;;;;;;;12822988;23;20199;-77
2021/05/15 19:17:12;;;;;;;4.30;2.60;;;;;;;;;;12821524;23;20904;-76
2021/05/15 19:22:15;;;;;;;3.70;2.70;;;;;;;;;;12847559;23;20178;-77
2021/05/15 19:27:17;;;;;;;4.33;2.60;;;;;;;;;;12843976;23;21100;-77
2021/05/15 19:32:21;;;;;;;5.00;2.70;;;;;;;;;;12844046;23;20307;-77
2021/05/15 19:37:24;;;;;;;6.20;2.70;;;;;;;;;;12846145;23;20223;-77
2021/05/15 19:42:26;;;;;;;5.27;2.90;;;;;;;;;;12827265;23;20186;-77
2021/05/15 19:47:29;;;;;;;5.83;2.80;;;;;;;;;;12846153;23;20175;-77
2021/05/15 19:52:34;;;;;;;3.67;2.47;;;;;;;;;;12843755;23;20873;-76
2021/05/15 19:57:41;;;;;;;3.97;2.90;;;;;;;;;;12825824;23;20168;-77
2021/05/15 20:02:44;;;;;;;3.20;2.43;;;;;;;;;;12841575;23;20204;-76
2021/05/15 20:07:47;;;;;;;2.73;2.43;;;;;;;;;;12846901;23;20238;-76
2021/05/15 20:12:49;;;;;;;5.33;2.63;;;;;;;;;;12823820;23;20230;-76
2021/05/15 20:18:07;;;;;;;2.93;2.40;;;;;;;;;;12844346;23;20179;-78
2021/05/15 20:23:10;;;;;;;2.90;2.30;;;;;;;;;;12824934;23;20175;-78
2021/05/15 20:28:12;;;;;;;4.90;2.43;;;;;;;;;;12844890;23;20199;-77
2021/05/15 20:33:15;;;;;;;4.10;2.63;;;;;;;;;;12821343;23;20178;-78
2021/05/15 20:38:17;;;;;;;4.43;2.93;;;;;;;;;;12846533;23;20207;-77
2021/05/15 20:43:20;;;;;;;4.40;2.73;;;;;;;;;;12823290;23;20190;-78
2021/05/15 20:48:33;;;;;;;3.60;2.90;;;;;;;;;;12823112;23;20207;-77
2021/05/15 20:53:37;;;;;;;4.03;3.07;;;;;;;;;;12823184;23;20188;-77
2021/05/15 20:58:39;;;;;;;5.00;3.30;;;;;;;;;;12824507;23;20621;-78
2021/05/15 21:03:42;;;;;;;5.17;3.60;;;;;;;;;;12840818;23;20195;-77
2021/05/15 21:08:44;;;;;;;4.63;3.50;;;;;;;;;;12825009;23;20594;-78
2021/05/15 21:13:47;;;;;;;4.77;3.80;;;;;;;;;;12842907;23;20279;-78
2021/05/15 21:18:50;;;;;;;4.57;3.77;;;;;;;;;;12821854;23;20179;-77
2021/05/15 21:23:52;;;;;;;5.03;3.73;;;;;;;;;;12843760;23;20176;-78
2021/05/15 21:28:54;;;;;;;4.80;3.47;;;;;;;;;;12843436;23;20646;-77
2021/05/15 21:33:57;;;;;;;6.13;3.73;;;;;;;;;;12841499;23;20540;-77
2021/05/15 21:39:00;;;;;;;5.87;3.97;;;;;;;;;;12844295;23;20540;-77
2021/05/15 21:44:02;;;;;;;5.43;3.83;;;;;;;;;;12842358;23;20183;-77
2021/05/15 21:49:05;;;;;;;5.20;3.97;;;;;;;;;;12821623;23;20213;-78
2021/05/15 21:54:09;;;;;;;4.73;3.77;;;;;;;;;;12821499;23;20191;-77
2021/05/15 21:59:13;;;;;;;4.40;4.00;;;;;;;;;;12845036;23;20176;-77
2021/05/15 22:04:16;;;;;;;4.33;3.93;;;;;;;;;;12819134;23;20234;-78
2021/05/15 22:09:18;;;;;;;6.10;4.00;;;;;;;;;;12823684;23;20593;-77
2021/05/15 22:14:20;;;;;;;6.20;4.50;;;;;;;;;;12820248;23;20201;-77
2021/05/15 22:19:24;;;;;;;6.27;4.73;;;;;;;;;;12820763;23;20504;-77
2021/05/15 22:24:27;;;;;;;6.47;4.53;;;;;;;;;;12821064;23;20233;-77
2021/05/15 22:29:29;;;;;;;6.00;4.27;;;;;;;;;;12844041;23;20221;-77
2021/05/15 22:34:32;;;;;;;5.93;4.10;;;;;;;;;;12840132;23;20186;-77
2021/05/15 22:39:35;;;;;;;8.27;4.43;;;;;;;;;;12821759;23;20582;-77
2021/05/15 22:44:37;;;;;;;6.17;4.07;;;;;;;;;;12823509;23;20175;-77
2021/05/15 22:49:42;;;;;;;6.17;4.23;;;;;;;;;;12838767;23;20687;-77
2021/05/15 22:54:44;;;;;;;6.37;3.63;;;;;;;;;;12823081;23;20195;-76
2021/05/15 22:59:47;;;;;;;4.90;3.30;;;;;;;;;;12840210;23;20179;-77
2021/05/15 23:04:50;;;;;;;5.47;3.20;;;;;;;;;;12818196;23;20543;-76
2021/05/15 23:09:52;;;;;;;6.43;3.67;;;;;;;;;;12842095;23;20207;-77
2021/05/15 23:14:55;;;;;;;7.87;3.80;;;;;;;;;;12842455;23;20172;-78
2021/05/15 23:19:58;;;;;;;7.53;3.50;;;;;;;;;;12839620;23;20262;-77
2021/05/15 23:25:00;;;;;;;7.73;3.47;;;;;;;;;;12822258;23;20164;-77
2021/05/15 23:30:12;;;;;;;6.43;3.90;;;;;;;;;;12842743;23;20241;-77
2021/05/15 23:35:16;;;;;;;7.93;4.03;;;;;;;;;;12818715;23;20507;-77
2021/05/15 23:40:18;;;;;;;7.57;4.03;;;;;;;;;;12821752;23;20198;-77
2021/05/15 23:45:22;;;;;;;7.33;3.90;;;;;;;;;;12842504;23;20180;-77
2021/05/15 23:50:26;;;;;;;6.53;3.87;;;;;;;;;;12819001;23;20231;-76
2021/05/15 23:55:28;;;;;;;10.33;4.50;;;;;;;;;;12815905;23;20184;-77
